»·PEaware :: SWA700 KSFO-KSAN

SWA700 :: KSFO-KSAN

FLIGHT INFORMATION

Flight Status: Arrived
Operator:
Southwest Airlines
More flights by this operator :: More flights under this callsign
Pilot: Maximilliano F. (23467)
Aircraft: AIRBUS A319
(A319)
More flights by this aircraft type
Origin: KSFO San Francisco Intl
United States
Destination: KSAN San Diego Intl-Lindbergh
United States
More flights between these airports :: More routes between these airports
Route: SSTIK4 YYUNG LAX COMIX2
File this flight plan on PilotEdge
Remarks: RMK / SIMBRIEF
Altitude:
(Current/Filed)
37,000ft
Speed:
(Current/Filed)
435kts
Departed: 27-Oct-19 04:30 PM
Arrived: 27-Oct-19 05:37 PM
Distance/Time
Traveled:
388nm/1:07
Distance/Time
To Go:
Arrived

Flight Plot

Page will automatically refresh every two minutes.

Flight plan parsing failed; only flown route is shown


Map Options




Map Legend


Flown Route
Filed Route
Departure Airport
Arrival Airport
Navaid (VOR, NDB)
Fix

Horizontal Profiles

Position Reports

Time Latitude Longitude Heading Altitude Ground
Speed
27-Oct-19 15:45 37.612666 -122.384665 6 35ft 0kts
27-Oct-19 15:46 37.612666 -122.384665 6 35ft 0kts
27-Oct-19 15:47 37.612666 -122.384665 6 35ft 0kts
27-Oct-19 15:51 37.612666 -122.384665 6 35ft 0kts
27-Oct-19 15:52 37.612666 -122.384665 6 35ft 0kts
27-Oct-19 15:53 37.612666 -122.384665 6 35ft 0kts
27-Oct-19 15:54 37.612666 -122.384665 6 35ft 0kts
27-Oct-19 15:55 37.612666 -122.384665 6 35ft 0kts
27-Oct-19 15:56 37.612666 -122.384665 6 35ft 0kts
27-Oct-19 15:57 37.612666 -122.384665 6 35ft 0kts
27-Oct-19 15:58 37.612666 -122.384665 6 35ft 0kts
27-Oct-19 15:59 37.612666 -122.384665 6 35ft 0kts
27-Oct-19 16:00 37.612666 -122.384665 6 35ft 0kts
27-Oct-19 16:01 37.612666 -122.384665 6 35ft 0kts
27-Oct-19 16:02 37.612666 -122.384665 6 35ft 0kts
27-Oct-19 16:03 37.612666 -122.384665 6 35ft 0kts
27-Oct-19 16:04 37.612666 -122.384665 6 35ft 0kts
27-Oct-19 16:05 37.612666 -122.384665 6 35ft 0kts
27-Oct-19 16:06 37.612666 -122.384665 6 35ft 0kts
27-Oct-19 16:07 37.612666 -122.384665 6 35ft 0kts
27-Oct-19 16:08 37.612666 -122.384665 6 35ft 0kts
27-Oct-19 16:09 37.612666 -122.384665 6 35ft 0kts
27-Oct-19 16:10 37.612666 -122.384665 6 35ft 0kts
27-Oct-19 16:11 37.612666 -122.384665 6 35ft 0kts
27-Oct-19 16:12 37.612666 -122.384665 6 35ft 0kts
27-Oct-19 16:13 37.612565 -122.384680 6 35ft 2kts
27-Oct-19 16:14 37.611975 -122.384804 39 35ft 2kts
27-Oct-19 16:15 37.611880 -122.385290 108 35ft 0kts
27-Oct-19 16:16 37.611880 -122.385289 108 35ft 0kts
27-Oct-19 16:17 37.611880 -122.385289 108 35ft 0kts
27-Oct-19 16:18 37.611880 -122.385289 108 35ft 0kts
27-Oct-19 16:19 37.611880 -122.385289 108 35ft 0kts
27-Oct-19 16:20 37.611830 -122.385103 109 35ft 2kts
27-Oct-19 16:21 37.611780 -122.384924 111 35ft 0kts
27-Oct-19 16:22 37.611720 -122.384748 115 35ft 3kts
27-Oct-19 16:24 37.611273 -122.384241 164 35ft 0kts
27-Oct-19 16:25 37.611007 -122.384140 163 35ft 3kts
27-Oct-19 16:26 37.608952 -122.384778 160 34ft 10kts
27-Oct-19 16:27 37.608483 -122.383899 117 34ft 0kts
27-Oct-19 16:28 37.608483 -122.383899 117 34ft 0kts
27-Oct-19 16:29 37.608422 -122.382567 29 32ft 10kts
27-Oct-19 16:30 37.622726 -122.373089 27 106ft 161kts
27-Oct-19 16:31 37.665540 -122.361151 3 3153ft 187kts
27-Oct-19 16:32 37.713304 -122.400405 279 6056ft 287kts
27-Oct-19 16:33 37.650298 -122.451383 180 9522ft 316kts
27-Oct-19 16:34 37.560299 -122.463127 185 10001ft 325kts
27-Oct-19 16:35 37.469543 -122.478173 187 10851ft 341kts
27-Oct-19 16:36 37.372007 -122.496316 191 13786ft 366kts
27-Oct-19 16:37 37.269506 -122.515451 192 16624ft 381kts
27-Oct-19 16:38 37.163161 -122.535246 192 19021ft 395kts
27-Oct-19 16:39 37.053070 -122.555667 192 21163ft 407kts
27-Oct-19 16:40 36.945812 -122.521901 145 23269ft 418kts
27-Oct-19 16:41 36.844971 -122.445742 147 25057ft 430kts
27-Oct-19 16:42 36.740768 -122.369373 147 26649ft 441kts
27-Oct-19 16:42 36.651832 -122.304395 148 27871ft 449kts
27-Oct-19 16:44 36.525141 -122.212130 149 29455ft 460kts
27-Oct-19 16:45 36.413923 -122.131453 149 30702ft 468kts
27-Oct-19 16:45 36.319293 -122.063040 149 31616ft 477kts
27-Oct-19 16:46 36.204137 -121.980056 149 32690ft 484kts
27-Oct-19 16:47 36.086857 -121.895863 149 33676ft 492kts
27-Oct-19 16:48 35.978178 -121.794231 132 34709ft 493kts
27-Oct-19 16:49 35.892618 -121.662760 125 35669ft 491kts
27-Oct-19 16:50 35.809003 -121.530276 126 36602ft 488kts
27-Oct-19 16:51 35.725570 -121.398452 127 36890ft 488kts
27-Oct-19 16:52 35.642144 -121.266720 128 36890ft 488kts
27-Oct-19 16:53 35.558610 -121.135634 129 36891ft 488kts
27-Oct-19 16:54 35.476835 -121.002759 125 36892ft 489kts
27-Oct-19 16:55 35.398551 -120.866276 126 36891ft 490kts
27-Oct-19 16:56 35.319231 -120.729988 126 36891ft 490kts
27-Oct-19 16:57 35.240109 -120.594710 127 36891ft 491kts
27-Oct-19 16:58 35.160340 -120.458858 127 36891ft 491kts
27-Oct-19 16:59 35.080310 -120.323010 128 36885ft 491kts
27-Oct-19 17:00 35.000329 -120.187384 128 36896ft 491kts
27-Oct-19 17:01 34.920294 -120.052610 129 36898ft 491kts
27-Oct-19 17:02 34.841195 -119.920464 130 36896ft 495kts
27-Oct-19 17:03 34.760217 -119.785571 130 36884ft 493kts
27-Oct-19 17:04 34.679294 -119.650923 131 36868ft 493kts
27-Oct-19 17:05 34.598333 -119.516688 131 36862ft 493kts
27-Oct-19 17:06 34.516947 -119.382236 131 36862ft 493kts
27-Oct-19 17:07 34.436023 -119.248617 132 36861ft 493kts
27-Oct-19 17:08 34.354275 -119.114465 132 36862ft 493kts
27-Oct-19 17:09 34.272427 -118.980720 132 36859ft 483kts
27-Oct-19 17:10 34.191903 -118.849747 133 36875ft 484kts
27-Oct-19 17:11 34.110864 -118.718406 133 36877ft 484kts
27-Oct-19 17:12 34.029398 -118.586879 134 36865ft 484kts
27-Oct-19 17:13 33.947833 -118.455677 135 36862ft 481kts
27-Oct-19 17:14 33.862663 -118.340798 143 36855ft 475kts
27-Oct-19 17:15 33.776743 -118.229832 142 36475ft 470kts
27-Oct-19 17:16 33.687064 -118.112093 140 33699ft 480kts
27-Oct-19 17:17 33.597505 -117.994649 140 31648ft 470kts
27-Oct-19 17:18 33.508241 -117.883167 144 29791ft 454kts
27-Oct-19 17:19 33.416493 -117.779383 145 27169ft 462kts
27-Oct-19 17:20 33.318092 -117.675091 143 23521ft 478kts
27-Oct-19 17:21 33.224474 -117.575323 144 19522ft 431kts
27-Oct-19 17:22 33.137601 -117.484654 147 15494ft 397kts
27-Oct-19 17:23 33.051560 -117.412392 149 11486ft 364kts
27-Oct-19 17:24 32.974758 -117.347942 148 9552ft 300kts
27-Oct-19 17:25 32.907832 -117.291726 148 9010ft 278kts
27-Oct-19 17:26 32.846233 -117.240711 148 8004ft 260kts
27-Oct-19 17:27 32.803264 -117.176918 105 7047ft 258kts
27-Oct-19 17:28 32.785439 -117.094728 105 6018ft 250kts
27-Oct-19 17:29 32.767157 -117.016822 107 5298ft 239kts
27-Oct-19 17:30 32.734586 -116.955351 169 4503ft 215kts
27-Oct-19 17:31 32.689925 -116.982505 252 3556ft 187kts
27-Oct-19 17:32 32.696961 -117.041195 284 2683ft 172kts
27-Oct-19 17:33 32.708610 -117.088790 283 1887ft 140kts
27-Oct-19 17:34 32.719532 -117.133665 284 993ft 143kts
27-Oct-19 17:35 32.730803 -117.178511 284 58ft 140kts
27-Oct-19 17:36 32.733595 -117.194502 186 22ft 0kts
27-Oct-19 17:37 32.731890 -117.195301 272 22ft 7kts
27-Oct-19 17:38 32.732349 -117.195925 308 22ft 0kts
27-Oct-19 17:39 32.732357 -117.195937 308 22ft 0kts
27-Oct-19 17:40 32.732357 -117.195937 308 22ft 0kts

Navigation Log

Ident Type
Flight plan parsing failed, navigation log unavailable